sensor_id;sensor_type;location;lat;lon;timestamp;P1;durP1;ratioP1;P2;durP2;ratioP2
5900;SDS011;2976;49.764;9.796;2023-04-24T00:00:00;1.33;;;1.33;;
5900;SDS011;2976;49.764;9.796;2023-04-24T00:02:26;1.07;;;1.07;;
5900;SDS011;2976;49.764;9.796;2023-04-24T00:04:51;0.80;;;0.80;;
5900;SDS011;2976;49.764;9.796;2023-04-24T00:07:17;0.90;;;0.90;;
5900;SDS011;2976;49.764;9.796;2023-04-24T00:09:43;1.20;;;1.20;;
5900;SDS011;2976;49.764;9.796;2023-04-24T00:12:09;1.80;;;1.07;;
5900;SDS011;2976;49.764;9.796;2023-04-24T00:14:35;1.23;;;1.13;;
5900;SDS011;2976;49.764;9.796;2023-04-24T00:17:00;1.20;;;1.10;;
5900;SDS011;2976;49.764;9.796;2023-04-24T00:19:27;0.90;;;0.90;;
5900;SDS011;2976;49.764;9.796;2023-04-24T00:21:53;0.80;;;0.80;;
5900;SDS011;2976;49.764;9.796;2023-04-24T00:24:20;1.90;;;0.97;;
5900;SDS011;2976;49.764;9.796;2023-04-24T00:26:45;1.03;;;0.83;;
5900;SDS011;2976;49.764;9.796;2023-04-24T00:29:11;2.20;;;1.40;;
5900;SDS011;2976;49.764;9.796;2023-04-24T00:31:37;2.97;;;1.37;;
5900;SDS011;2976;49.764;9.796;2023-04-24T00:34:03;1.43;;;0.90;;
5900;SDS011;2976;49.764;9.796;2023-04-24T00:36:29;1.80;;;0.80;;
5900;SDS011;2976;49.764;9.796;2023-04-24T00:38:55;1.20;;;1.10;;
5900;SDS011;2976;49.764;9.796;2023-04-24T00:41:22;0.73;;;0.73;;
5900;SDS011;2976;49.764;9.796;2023-04-24T00:43:48;0.97;;;0.97;;
5900;SDS011;2976;49.764;9.796;2023-04-24T00:46:14;4.27;;;1.03;;
5900;SDS011;2976;49.764;9.796;2023-04-24T00:48:39;2.20;;;1.00;;
5900;SDS011;2976;49.764;9.796;2023-04-24T00:51:05;0.90;;;0.70;;
5900;SDS011;2976;49.764;9.796;2023-04-24T00:53:31;0.90;;;0.90;;
5900;SDS011;2976;49.764;9.796;2023-04-24T00:55:57;0.70;;;0.70;;
5900;SDS011;2976;49.764;9.796;2023-04-24T00:58:23;0.93;;;0.90;;
5900;SDS011;2976;49.764;9.796;2023-04-24T01:00:50;1.23;;;1.00;;
5900;SDS011;2976;49.764;9.796;2023-04-24T01:03:18;1.97;;;0.87;;
5900;SDS011;2976;49.764;9.796;2023-04-24T01:05:45;0.73;;;0.73;;
5900;SDS011;2976;49.764;9.796;2023-04-24T01:08:11;0.93;;;0.93;;
5900;SDS011;2976;49.764;9.796;2023-04-24T01:10:36;0.70;;;0.70;;
5900;SDS011;2976;49.764;9.796;2023-04-24T01:13:03;1.97;;;1.30;;
5900;SDS011;2976;49.764;9.796;2023-04-24T01:15:29;2.33;;;1.30;;
5900;SDS011;2976;49.764;9.796;2023-04-24T01:17:54;1.23;;;0.60;;
5900;SDS011;2976;49.764;9.796;2023-04-24T01:20:20;1.53;;;0.77;;
5900;SDS011;2976;49.764;9.796;2023-04-24T01:22:47;0.80;;;0.73;;
5900;SDS011;2976;49.764;9.796;2023-04-24T01:25:13;0.97;;;0.80;;
5900;SDS011;2976;49.764;9.796;2023-04-24T01:27:39;0.90;;;0.90;;
5900;SDS011;2976;49.764;9.796;2023-04-24T01:30:05;1.07;;;0.90;;
5900;SDS011;2976;49.764;9.796;2023-04-24T01:32:31;1.90;;;0.90;;
5900;SDS011;2976;49.764;9.796;2023-04-24T01:34:57;1.80;;;0.87;;
5900;SDS011;2976;49.764;9.796;2023-04-24T01:37:23;1.80;;;0.90;;
5900;SDS011;2976;49.764;9.796;2023-04-24T01:39:49;1.03;;;0.73;;
5900;SDS011;2976;49.764;9.796;2023-04-24T01:42:14;0.63;;;0.63;;
5900;SDS011;2976;49.764;9.796;2023-04-24T01:44:41;1.03;;;1.00;;
5900;SDS011;2976;49.764;9.796;2023-04-24T01:47:07;1.83;;;0.83;;
5900;SDS011;2976;49.764;9.796;2023-04-24T01:49:32;1.33;;;0.70;;
5900;SDS011;2976;49.764;9.796;2023-04-24T01:51:58;0.70;;;0.70;;
5900;SDS011;2976;49.764;9.796;2023-04-24T01:54:23;0.83;;;0.70;;
5900;SDS011;2976;49.764;9.796;2023-04-24T01:56:49;2.10;;;0.97;;
5900;SDS011;2976;49.764;9.796;2023-04-24T01:59:15;1.43;;;0.93;;
5900;SDS011;2976;49.764;9.796;2023-04-24T02:01:43;1.80;;;1.13;;
5900;SDS011;2976;49.764;9.796;2023-04-24T02:04:08;0.77;;;0.77;;
5900;SDS011;2976;49.764;9.796;2023-04-24T02:06:34;2.00;;;0.90;;
5900;SDS011;2976;49.764;9.796;2023-04-24T02:09:00;1.57;;;0.80;;
5900;SDS011;2976;49.764;9.796;2023-04-24T02:11:25;1.40;;;0.83;;
5900;SDS011;2976;49.764;9.796;2023-04-24T02:13:51;1.90;;;0.80;;
5900;SDS011;2976;49.764;9.796;2023-04-24T02:16:17;1.47;;;0.73;;
5900;SDS011;2976;49.764;9.796;2023-04-24T02:18:43;1.00;;;1.00;;
5900;SDS011;2976;49.764;9.796;2023-04-24T02:21:09;0.90;;;0.70;;
5900;SDS011;2976;49.764;9.796;2023-04-24T02:23:35;1.50;;;0.87;;
5900;SDS011;2976;49.764;9.796;2023-04-24T02:26:00;2.30;;;0.97;;
5900;SDS011;2976;49.764;9.796;2023-04-24T02:28:26;2.10;;;1.10;;
5900;SDS011;2976;49.764;9.796;2023-04-24T02:30:52;2.13;;;0.90;;
5900;SDS011;2976;49.764;9.796;2023-04-24T02:33:17;1.57;;;0.70;;
5900;SDS011;2976;49.764;9.796;2023-04-24T02:35:43;2.27;;;1.03;;
5900;SDS011;2976;49.764;9.796;2023-04-24T02:38:08;1.07;;;0.63;;
5900;SDS011;2976;49.764;9.796;2023-04-24T02:40:34;1.93;;;0.80;;
5900;SDS011;2976;49.764;9.796;2023-04-24T02:42:59;0.87;;;0.87;;
5900;SDS011;2976;49.764;9.796;2023-04-24T02:45:25;1.03;;;1.00;;
5900;SDS011;2976;49.764;9.796;2023-04-24T02:47:50;1.80;;;1.10;;
5900;SDS011;2976;49.764;9.796;2023-04-24T02:50:16;3.70;;;0.70;;
5900;SDS011;2976;49.764;9.796;2023-04-24T02:52:41;6.43;;;0.97;;
5900;SDS011;2976;49.764;9.796;2023-04-24T02:55:07;0.73;;;0.73;;
5900;SDS011;2976;49.764;9.796;2023-04-24T02:57:33;3.20;;;1.10;;
5900;SDS011;2976;49.764;9.796;2023-04-24T02:59:58;1.23;;;1.00;;
5900;SDS011;2976;49.764;9.796;2023-04-24T03:02:24;2.47;;;0.73;;
5900;SDS011;2976;49.764;9.796;2023-04-24T03:04:50;0.97;;;0.87;;
5900;SDS011;2976;49.764;9.796;2023-04-24T03:07:15;1.33;;;0.80;;
5900;SDS011;2976;49.764;9.796;2023-04-24T03:09:41;1.03;;;1.00;;
5900;SDS011;2976;49.764;9.796;2023-04-24T03:12:06;0.97;;;0.97;;
5900;SDS011;2976;49.764;9.796;2023-04-24T03:14:32;1.73;;;1.10;;
5900;SDS011;2976;49.764;9.796;2023-04-24T03:16:58;2.37;;;1.03;;
5900;SDS011;2976;49.764;9.796;2023-04-24T03:19:23;2.73;;;1.03;;
5900;SDS011;2976;49.764;9.796;2023-04-24T03:21:49;1.53;;;1.10;;
5900;SDS011;2976;49.764;9.796;2023-04-24T03:24:15;1.57;;;0.90;;
5900;SDS011;2976;49.764;9.796;2023-04-24T03:26:40;4.00;;;1.27;;
5900;SDS011;2976;49.764;9.796;2023-04-24T03:29:06;4.53;;;0.90;;
5900;SDS011;2976;49.764;9.796;2023-04-24T03:31:31;1.60;;;1.07;;
5900;SDS011;2976;49.764;9.796;2023-04-24T03:33:57;2.50;;;0.77;;
5900;SDS011;2976;49.764;9.796;2023-04-24T03:36:22;1.87;;;0.90;;
5900;SDS011;2976;49.764;9.796;2023-04-24T03:38:48;3.17;;;0.93;;
5900;SDS011;2976;49.764;9.796;2023-04-24T03:41:13;4.57;;;0.87;;
5900;SDS011;2976;49.764;9.796;2023-04-24T03:43:39;1.53;;;0.60;;
5900;SDS011;2976;49.764;9.796;2023-04-24T03:46:04;11.73;;;1.30;;
5900;SDS011;2976;49.764;9.796;2023-04-24T03:48:30;0.80;;;0.80;;
5900;SDS011;2976;49.764;9.796;2023-04-24T03:50:55;1.90;;;0.90;;
5900;SDS011;2976;49.764;9.796;2023-04-24T03:53:21;2.43;;;0.90;;
5900;SDS011;2976;49.764;9.796;2023-04-24T03:55:47;1.70;;;0.73;;
5900;SDS011;2976;49.764;9.796;2023-04-24T03:58:12;0.87;;;0.87;;
5900;SDS011;2976;49.764;9.796;2023-04-24T04:00:40;4.03;;;1.20;;
5900;SDS011;2976;49.764;9.796;2023-04-24T04:03:06;0.90;;;0.90;;
5900;SDS011;2976;49.764;9.796;2023-04-24T04:05:32;1.20;;;1.10;;
5900;SDS011;2976;49.764;9.796;2023-04-24T04:07:57;1.20;;;1.20;;
5900;SDS011;2976;49.764;9.796;2023-04-24T04:10:23;2.53;;;1.00;;
5900;SDS011;2976;49.764;9.796;2023-04-24T04:12:48;1.03;;;1.03;;
5900;SDS011;2976;49.764;9.796;2023-04-24T04:15:14;1.10;;;1.00;;
5900;SDS011;2976;49.764;9.796;2023-04-24T04:17:39;0.80;;;0.80;;
5900;SDS011;2976;49.764;9.796;2023-04-24T04:20:05;2.50;;;0.83;;
5900;SDS011;2976;49.764;9.796;2023-04-24T04:22:34;1.47;;;1.13;;
5900;SDS011;2976;49.764;9.796;2023-04-24T04:25:03;1.50;;;0.83;;
5900;SDS011;2976;49.764;9.796;2023-04-24T04:27:29;2.70;;;1.00;;
5900;SDS011;2976;49.764;9.796;2023-04-24T04:29:57;0.80;;;0.80;;
5900;SDS011;2976;49.764;9.796;2023-04-24T04:32:26;1.10;;;0.90;;
5900;SDS011;2976;49.764;9.796;2023-04-24T04:34:52;0.97;;;0.83;;
5900;SDS011;2976;49.764;9.796;2023-04-24T04:37:18;2.97;;;1.03;;
5900;SDS011;2976;49.764;9.796;2023-04-24T04:39:43;2.30;;;1.20;;
5900;SDS011;2976;49.764;9.796;2023-04-24T04:42:09;3.67;;;1.00;;
5900;SDS011;2976;49.764;9.796;2023-04-24T04:44:35;2.40;;;1.10;;
5900;SDS011;2976;49.764;9.796;2023-04-24T04:47:01;2.50;;;1.13;;
5900;SDS011;2976;49.764;9.796;2023-04-24T04:49:30;4.13;;;1.13;;
5900;SDS011;2976;49.764;9.796;2023-04-24T04:51:56;2.10;;;1.30;;
5900;SDS011;2976;49.764;9.796;2023-04-24T04:54:22;3.23;;;1.07;;
5900;SDS011;2976;49.764;9.796;2023-04-24T04:56:49;1.17;;;1.00;;
5900;SDS011;2976;49.764;9.796;2023-04-24T04:59:15;1.20;;;1.20;;
5900;SDS011;2976;49.764;9.796;2023-04-24T05:01:41;0.97;;;0.97;;
5900;SDS011;2976;49.764;9.796;2023-04-24T05:04:06;1.20;;;1.20;;
5900;SDS011;2976;49.764;9.796;2023-04-24T05:06:32;7.20;;;1.37;;
5900;SDS011;2976;49.764;9.796;2023-04-24T05:08:57;2.57;;;1.43;;
5900;SDS011;2976;49.764;9.796;2023-04-24T05:11:23;1.47;;;1.37;;
5900;SDS011;2976;49.764;9.796;2023-04-24T05:13:48;2.40;;;1.23;;
5900;SDS011;2976;49.764;9.796;2023-04-24T05:16:14;1.00;;;1.00;;
5900;SDS011;2976;49.764;9.796;2023-04-24T05:18:40;2.63;;;0.90;;
5900;SDS011;2976;49.764;9.796;2023-04-24T05:21:06;1.20;;;1.10;;
5900;SDS011;2976;49.764;9.796;2023-04-24T05:23:31;1.00;;;1.00;;
5900;SDS011;2976;49.764;9.796;2023-04-24T05:25:57;3.30;;;1.13;;
5900;SDS011;2976;49.764;9.796;2023-04-24T05:28:22;1.17;;;1.00;;
5900;SDS011;2976;49.764;9.796;2023-04-24T05:30:48;1.50;;;1.40;;
5900;SDS011;2976;49.764;9.796;2023-04-24T05:33:13;1.27;;;1.13;;
5900;SDS011;2976;49.764;9.796;2023-04-24T05:35:40;1.00;;;1.00;;
5900;SDS011;2976;49.764;9.796;2023-04-24T05:38:10;3.10;;;1.23;;
5900;SDS011;2976;49.764;9.796;2023-04-24T05:40:36;1.27;;;1.27;;
5900;SDS011;2976;49.764;9.796;2023-04-24T05:43:02;1.03;;;1.03;;
5900;SDS011;2976;49.764;9.796;2023-04-24T05:45:27;0.87;;;0.87;;
5900;SDS011;2976;49.764;9.796;2023-04-24T05:47:53;1.73;;;0.80;;
5900;SDS011;2976;49.764;9.796;2023-04-24T05:50:18;0.83;;;0.83;;
5900;SDS011;2976;49.764;9.796;2023-04-24T05:52:44;1.47;;;1.37;;
5900;SDS011;2976;49.764;9.796;2023-04-24T05:55:09;1.03;;;1.03;;
5900;SDS011;2976;49.764;9.796;2023-04-24T05:57:35;1.80;;;1.27;;
5900;SDS011;2976;49.764;9.796;2023-04-24T06:00:00;0.87;;;0.87;;
5900;SDS011;2976;49.764;9.796;2023-04-24T06:02:26;1.43;;;1.33;;
5900;SDS011;2976;49.764;9.796;2023-04-24T06:04:52;0.90;;;0.90;;
5900;SDS011;2976;49.764;9.796;2023-04-24T06:07:18;2.60;;;1.10;;
5900;SDS011;2976;49.764;9.796;2023-04-24T06:09:43;1.07;;;0.97;;
5900;SDS011;2976;49.764;9.796;2023-04-24T06:12:09;1.40;;;1.13;;
5900;SDS011;2976;49.764;9.796;2023-04-24T06:14:34;4.47;;;1.10;;
5900;SDS011;2976;49.764;9.796;2023-04-24T06:17:00;1.10;;;1.00;;
5900;SDS011;2976;49.764;9.796;2023-04-24T06:19:26;0.97;;;0.97;;
5900;SDS011;2976;49.764;9.796;2023-04-24T06:21:51;1.10;;;1.10;;
5900;SDS011;2976;49.764;9.796;2023-04-24T06:24:17;4.20;;;1.23;;
5900;SDS011;2976;49.764;9.796;2023-04-24T06:26:42;0.90;;;0.90;;
5900;SDS011;2976;49.764;9.796;2023-04-24T06:29:08;1.37;;;1.27;;
5900;SDS011;2976;49.764;9.796;2023-04-24T06:31:33;0.80;;;0.80;;
5900;SDS011;2976;49.764;9.796;2023-04-24T06:34:01;1.43;;;1.43;;
5900;SDS011;2976;49.764;9.796;2023-04-24T06:36:27;1.07;;;1.00;;
5900;SDS011;2976;49.764;9.796;2023-04-24T06:38:53;1.20;;;1.20;;
5900;SDS011;2976;49.764;9.796;2023-04-24T06:41:19;1.20;;;1.10;;
5900;SDS011;2976;49.764;9.796;2023-04-24T06:43:45;1.20;;;1.13;;
5900;SDS011;2976;49.764;9.796;2023-04-24T06:46:10;1.27;;;1.17;;
5900;SDS011;2976;49.764;9.796;2023-04-24T06:48:36;1.57;;;1.57;;
5900;SDS011;2976;49.764;9.796;2023-04-24T06:51:02;1.23;;;1.23;;
5900;SDS011;2976;49.764;9.796;2023-04-24T06:53:28;1.50;;;1.40;;
5900;SDS011;2976;49.764;9.796;2023-04-24T06:55:53;2.50;;;1.77;;
5900;SDS011;2976;49.764;9.796;2023-04-24T06:58:19;1.53;;;1.10;;
5900;SDS011;2976;49.764;9.796;2023-04-24T07:00:45;1.20;;;1.10;;
5900;SDS011;2976;49.764;9.796;2023-04-24T07:03:11;2.40;;;1.40;;
5900;SDS011;2976;49.764;9.796;2023-04-24T07:05:36;1.27;;;1.17;;
5900;SDS011;2976;49.764;9.796;2023-04-24T07:08:03;2.30;;;1.67;;
5900;SDS011;2976;49.764;9.796;2023-04-24T07:10:28;1.07;;;1.07;;
5900;SDS011;2976;49.764;9.796;2023-04-24T07:12:55;1.43;;;1.40;;
5900;SDS011;2976;49.764;9.796;2023-04-24T07:15:23;6.10;;;1.50;;
5900;SDS011;2976;49.764;9.796;2023-04-24T07:17:49;1.80;;;1.70;;
5900;SDS011;2976;49.764;9.796;2023-04-24T07:20:15;1.50;;;1.40;;
5900;SDS011;2976;49.764;9.796;2023-04-24T07:22:40;2.60;;;1.57;;
5900;SDS011;2976;49.764;9.796;2023-04-24T07:25:06;1.60;;;1.50;;
5900;SDS011;2976;49.764;9.796;2023-04-24T07:27:32;2.20;;;1.30;;
5900;SDS011;2976;49.764;9.796;2023-04-24T07:29:58;2.30;;;1.60;;
5900;SDS011;2976;49.764;9.796;2023-04-24T07:32:24;2.77;;;1.83;;
5900;SDS011;2976;49.764;9.796;2023-04-24T07:34:50;1.70;;;1.60;;
5900;SDS011;2976;49.764;9.796;2023-04-24T07:37:15;2.07;;;1.73;;
5900;SDS011;2976;49.764;9.796;2023-04-24T07:39:41;2.13;;;1.83;;
5900;SDS011;2976;49.764;9.796;2023-04-24T07:42:06;2.03;;;1.93;;
5900;SDS011;2976;49.764;9.796;2023-04-24T07:44:32;2.00;;;1.90;;
5900;SDS011;2976;49.764;9.796;2023-04-24T07:46:57;1.90;;;1.80;;
5900;SDS011;2976;49.764;9.796;2023-04-24T07:49:23;2.00;;;1.90;;
5900;SDS011;2976;49.764;9.796;2023-04-24T07:51:49;3.20;;;1.90;;
5900;SDS011;2976;49.764;9.796;2023-04-24T07:54:15;2.43;;;2.13;;
5900;SDS011;2976;49.764;9.796;2023-04-24T07:56:41;1.70;;;1.60;;
5900;SDS011;2976;49.764;9.796;2023-04-24T07:59:08;2.30;;;1.93;;
5900;SDS011;2976;49.764;9.796;2023-04-24T08:01:34;2.30;;;1.60;;
5900;SDS011;2976;49.764;9.796;2023-04-24T08:04:00;1.90;;;1.80;;
5900;SDS011;2976;49.764;9.796;2023-04-24T08:06:26;3.97;;;1.70;;
5900;SDS011;2976;49.764;9.796;2023-04-24T08:08:55;1.70;;;1.60;;
5900;SDS011;2976;49.764;9.796;2023-04-24T08:11:21;4.00;;;2.30;;
5900;SDS011;2976;49.764;9.796;2023-04-24T08:13:46;2.00;;;1.90;;
5900;SDS011;2976;49.764;9.796;2023-04-24T08:16:12;1.90;;;1.80;;
5900;SDS011;2976;49.764;9.796;2023-04-24T08:18:37;1.97;;;1.77;;
5900;SDS011;2976;49.764;9.796;2023-04-24T08:21:03;1.77;;;1.67;;
5900;SDS011;2976;49.764;9.796;2023-04-24T08:23:29;2.30;;;2.03;;
5900;SDS011;2976;49.764;9.796;2023-04-24T08:25:54;1.70;;;1.60;;
5900;SDS011;2976;49.764;9.796;2023-04-24T08:28:20;2.20;;;1.80;;
5900;SDS011;2976;49.764;9.796;2023-04-24T08:30:46;2.70;;;1.67;;
5900;SDS011;2976;49.764;9.796;2023-04-24T08:33:19;1.80;;;1.70;;
5900;SDS011;2976;49.764;9.796;2023-04-24T08:35:47;1.60;;;1.50;;
5900;SDS011;2976;49.764;9.796;2023-04-24T08:38:13;1.77;;;1.67;;
5900;SDS011;2976;49.764;9.796;2023-04-24T08:40:38;4.50;;;2.20;;
5900;SDS011;2976;49.764;9.796;2023-04-24T08:43:04;1.63;;;1.53;;
5900;SDS011;2976;49.764;9.796;2023-04-24T08:45:30;1.83;;;1.70;;
5900;SDS011;2976;49.764;9.796;2023-04-24T08:47:57;1.60;;;1.50;;
5900;SDS011;2976;49.764;9.796;2023-04-24T08:50:24;1.57;;;1.47;;
5900;SDS011;2976;49.764;9.796;2023-04-24T08:52:51;1.17;;;1.10;;
5900;SDS011;2976;49.764;9.796;2023-04-24T08:55:18;1.60;;;1.50;;
5900;SDS011;2976;49.764;9.796;2023-04-24T08:57:45;1.30;;;1.20;;
5900;SDS011;2976;49.764;9.796;2023-04-24T09:00:14;1.57;;;1.17;;
5900;SDS011;2976;49.764;9.796;2023-04-24T09:02:42;1.10;;;1.00;;
5900;SDS011;2976;49.764;9.796;2023-04-24T09:05:10;0.87;;;0.87;;
5900;SDS011;2976;49.764;9.796;2023-04-24T09:07:37;1.10;;;0.90;;
5900;SDS011;2976;49.764;9.796;2023-04-24T09:10:06;2.20;;;0.93;;
5900;SDS011;2976;49.764;9.796;2023-04-24T09:12:33;0.83;;;0.83;;
5900;SDS011;2976;49.764;9.796;2023-04-24T09:15:00;1.23;;;0.90;;
5900;SDS011;2976;49.764;9.796;2023-04-24T09:17:28;0.63;;;0.63;;
5900;SDS011;2976;49.764;9.796;2023-04-24T09:19:54;1.53;;;0.97;;
5900;SDS011;2976;49.764;9.796;2023-04-24T09:22:20;1.07;;;0.77;;
5900;SDS011;2976;49.764;9.796;2023-04-24T09:24:46;1.77;;;1.10;;
5900;SDS011;2976;49.764;9.796;2023-04-24T09:27:13;0.90;;;0.90;;
5900;SDS011;2976;49.764;9.796;2023-04-24T09:29:41;0.80;;;0.80;;
5900;SDS011;2976;49.764;9.796;2023-04-24T09:32:22;1.20;;;1.00;;
5900;SDS011;2976;49.764;9.796;2023-04-24T09:35:04;1.10;;;1.00;;
5900;SDS011;2976;49.764;9.796;2023-04-24T09:37:34;3.73;;;1.40;;
5900;SDS011;2976;49.764;9.796;2023-04-24T09:40:07;1.07;;;0.93;;
5900;SDS011;2976;49.764;9.796;2023-04-24T09:42:33;1.20;;;1.10;;
5900;SDS011;2976;49.764;9.796;2023-04-24T09:44:58;0.90;;;0.90;;
5900;SDS011;2976;49.764;9.796;2023-04-24T09:47:24;2.30;;;1.63;;
5900;SDS011;2976;49.764;9.796;2023-04-24T09:49:49;1.00;;;1.00;;
5900;SDS011;2976;49.764;9.796;2023-04-24T09:52:15;1.40;;;1.40;;
5900;SDS011;2976;49.764;9.796;2023-04-24T09:54:40;2.07;;;1.20;;
5900;SDS011;2976;49.764;9.796;2023-04-24T09:57:09;2.03;;;1.40;;
5900;SDS011;2976;49.764;9.796;2023-04-24T09:59:34;1.10;;;1.10;;
5900;SDS011;2976;49.764;9.796;2023-04-24T10:02:00;1.10;;;1.10;;
5900;SDS011;2976;49.764;9.796;2023-04-24T10:04:26;2.40;;;1.77;;
5900;SDS011;2976;49.764;9.796;2023-04-24T10:06:54;1.17;;;1.00;;
5900;SDS011;2976;49.764;9.796;2023-04-24T10:09:22;1.40;;;1.30;;
5900;SDS011;2976;49.764;9.796;2023-04-24T10:11:49;1.00;;;1.00;;
5900;SDS011;2976;49.764;9.796;2023-04-24T10:14:17;1.50;;;1.40;;
5900;SDS011;2976;49.764;9.796;2023-04-24T10:16:47;1.63;;;1.47;;
5900;SDS011;2976;49.764;9.796;2023-04-24T10:19:14;1.20;;;1.10;;
5900;SDS011;2976;49.764;9.796;2023-04-24T10:21:41;1.60;;;1.50;;
5900;SDS011;2976;49.764;9.796;2023-04-24T10:24:11;2.20;;;1.50;;
5900;SDS011;2976;49.764;9.796;2023-04-24T10:26:41;2.50;;;1.50;;
5900;SDS011;2976;49.764;9.796;2023-04-24T10:29:07;1.37;;;1.37;;
5900;SDS011;2976;49.764;9.796;2023-04-24T10:31:36;1.60;;;1.50;;
5900;SDS011;2976;49.764;9.796;2023-04-24T10:34:03;2.70;;;1.30;;
5900;SDS011;2976;49.764;9.796;2023-04-24T10:36:30;3.17;;;1.87;;
5900;SDS011;2976;49.764;9.796;2023-04-24T10:38:57;3.03;;;1.73;;
5900;SDS011;2976;49.764;9.796;2023-04-24T10:41:25;1.30;;;1.20;;
5900;SDS011;2976;49.764;9.796;2023-04-24T10:44:07;1.30;;;1.20;;
5900;SDS011;2976;49.764;9.796;2023-04-24T10:46:34;1.20;;;1.20;;
5900;SDS011;2976;49.764;9.796;2023-04-24T10:49:04;1.17;;;1.17;;
5900;SDS011;2976;49.764;9.796;2023-04-24T10:51:47;1.23;;;1.23;;
5900;SDS011;2976;49.764;9.796;2023-04-24T10:54:27;25.63;;;3.00;;
5900;SDS011;2976;49.764;9.796;2023-04-24T10:59:46;1.47;;;1.37;;
5900;SDS011;2976;49.764;9.796;2023-04-24T11:02:16;1.93;;;1.60;;
5900;SDS011;2976;49.764;9.796;2023-04-24T11:04:42;2.50;;;1.53;;
5900;SDS011;2976;49.764;9.796;2023-04-24T11:07:09;1.60;;;1.50;;
5900;SDS011;2976;49.764;9.796;2023-04-24T11:09:35;1.43;;;1.20;;
5900;SDS011;2976;49.764;9.796;2023-04-24T11:14:53;1.80;;;1.70;;
5900;SDS011;2976;49.764;9.796;2023-04-24T11:19:55;2.00;;;1.80;;
5900;SDS011;2976;49.764;9.796;2023-04-24T11:22:26;1.50;;;1.40;;
5900;SDS011;2976;49.764;9.796;2023-04-24T11:24:54;2.93;;;1.13;;
5900;SDS011;2976;49.764;9.796;2023-04-24T11:27:20;1.30;;;1.30;;
5900;SDS011;2976;49.764;9.796;2023-04-24T11:35:08;1.57;;;1.47;;
5900;SDS011;2976;49.764;9.796;2023-04-24T11:37:39;1.47;;;1.23;;
5900;SDS011;2976;49.764;9.796;2023-04-24T11:40:06;2.73;;;1.10;;
5900;SDS011;2976;49.764;9.796;2023-04-24T11:42:33;2.30;;;1.20;;
5900;SDS011;2976;49.764;9.796;2023-04-24T11:45:00;2.07;;;1.87;;
5900;SDS011;2976;49.764;9.796;2023-04-24T11:47:30;2.20;;;1.00;;
5900;SDS011;2976;49.764;9.796;2023-04-24T11:49:57;1.33;;;1.30;;
5900;SDS011;2976;49.764;9.796;2023-04-24T11:52:24;3.80;;;1.30;;
5900;SDS011;2976;49.764;9.796;2023-04-24T11:54:50;1.80;;;1.30;;
5900;SDS011;2976;49.764;9.796;2023-04-24T11:57:16;1.33;;;1.00;;
5900;SDS011;2976;49.764;9.796;2023-04-24T11:59:46;1.60;;;1.50;;
5900;SDS011;2976;49.764;9.796;2023-04-24T12:02:21;1.47;;;1.37;;
5900;SDS011;2976;49.764;9.796;2023-04-24T12:04:48;1.20;;;1.10;;
5900;SDS011;2976;49.764;9.796;2023-04-24T12:07:13;1.43;;;1.33;;
5900;SDS011;2976;49.764;9.796;2023-04-24T12:09:40;1.53;;;1.33;;
5900;SDS011;2976;49.764;9.796;2023-04-24T12:12:10;0.93;;;0.93;;
5900;SDS011;2976;49.764;9.796;2023-04-24T12:17:09;4.00;;;1.00;;
5900;SDS011;2976;49.764;9.796;2023-04-24T12:19:35;2.10;;;1.10;;
5900;SDS011;2976;49.764;9.796;2023-04-24T12:22:02;2.03;;;0.80;;
5900;SDS011;2976;49.764;9.796;2023-04-24T12:24:29;1.00;;;1.00;;
5900;SDS011;2976;49.764;9.796;2023-04-24T12:26:55;1.00;;;1.00;;
5900;SDS011;2976;49.764;9.796;2023-04-24T12:29:21;1.03;;;1.03;;
5900;SDS011;2976;49.764;9.796;2023-04-24T12:31:47;3.33;;;1.20;;
5900;SDS011;2976;49.764;9.796;2023-04-24T12:34:20;1.20;;;1.13;;
5900;SDS011;2976;49.764;9.796;2023-04-24T12:36:47;0.93;;;0.90;;
5900;SDS011;2976;49.764;9.796;2023-04-24T12:39:16;5.30;;;0.90;;
5900;SDS011;2976;49.764;9.796;2023-04-24T12:42:16;1.27;;;1.17;;
5900;SDS011;2976;49.764;9.796;2023-04-24T12:44:36;2.30;;;0.93;;
5900;SDS011;2976;49.764;9.796;2023-04-24T12:47:02;0.90;;;0.90;;
5900;SDS011;2976;49.764;9.796;2023-04-24T12:49:29;2.23;;;1.33;;
5900;SDS011;2976;49.764;9.796;2023-04-24T12:51:55;1.00;;;1.00;;
5900;SDS011;2976;49.764;9.796;2023-04-24T12:54:21;1.40;;;1.30;;
5900;SDS011;2976;49.764;9.796;2023-04-24T12:56:47;1.07;;;1.07;;
5900;SDS011;2976;49.764;9.796;2023-04-24T12:59:12;1.33;;;1.30;;
5900;SDS011;2976;49.764;9.796;2023-04-24T13:01:38;1.33;;;1.23;;
5900;SDS011;2976;49.764;9.796;2023-04-24T13:04:05;1.90;;;1.80;;
5900;SDS011;2976;49.764;9.796;2023-04-24T13:06:30;2.63;;;1.23;;
5900;SDS011;2976;49.764;9.796;2023-04-24T13:08:56;2.10;;;1.30;;
5900;SDS011;2976;49.764;9.796;2023-04-24T13:11:22;5.77;;;1.33;;
5900;SDS011;2976;49.764;9.796;2023-04-24T13:13:49;1.60;;;1.50;;
5900;SDS011;2976;49.764;9.796;2023-04-24T13:16:14;2.00;;;1.90;;
5900;SDS011;2976;49.764;9.796;2023-04-24T13:18:40;1.57;;;1.50;;
5900;SDS011;2976;49.764;9.796;2023-04-24T13:21:05;1.83;;;1.53;;
5900;SDS011;2976;49.764;9.796;2023-04-24T13:23:31;2.20;;;1.40;;
5900;SDS011;2976;49.764;9.796;2023-04-24T13:25:56;2.23;;;1.70;;
5900;SDS011;2976;49.764;9.796;2023-04-24T13:28:22;1.57;;;1.47;;
5900;SDS011;2976;49.764;9.796;2023-04-24T13:30:49;2.00;;;1.70;;
5900;SDS011;2976;49.764;9.796;2023-04-24T13:33:15;2.17;;;1.87;;
5900;SDS011;2976;49.764;9.796;2023-04-24T13:35:40;3.27;;;1.43;;
5900;SDS011;2976;49.764;9.796;2023-04-24T13:38:06;2.50;;;1.73;;
5900;SDS011;2976;49.764;9.796;2023-04-24T13:40:31;2.73;;;1.90;;
5900;SDS011;2976;49.764;9.796;2023-04-24T13:42:57;1.87;;;1.77;;
5900;SDS011;2976;49.764;9.796;2023-04-24T13:45:23;2.23;;;2.13;;
5900;SDS011;2976;49.764;9.796;2023-04-24T13:47:48;2.30;;;1.77;;
5900;SDS011;2976;49.764;9.796;2023-04-24T13:50:14;2.70;;;2.37;;
5900;SDS011;2976;49.764;9.796;2023-04-24T13:52:40;2.20;;;1.80;;
5900;SDS011;2976;49.764;9.796;2023-04-24T13:55:06;1.90;;;1.80;;
5900;SDS011;2976;49.764;9.796;2023-04-24T13:57:31;1.67;;;1.57;;
5900;SDS011;2976;49.764;9.796;2023-04-24T13:59:57;4.10;;;1.60;;
5900;SDS011;2976;49.764;9.796;2023-04-24T14:02:26;1.33;;;1.30;;
5900;SDS011;2976;49.764;9.796;2023-04-24T14:04:52;1.77;;;1.60;;
5900;SDS011;2976;49.764;9.796;2023-04-24T14:07:17;2.00;;;1.90;;
5900;SDS011;2976;49.764;9.796;2023-04-24T14:09:43;2.33;;;2.13;;
5900;SDS011;2976;49.764;9.796;2023-04-24T14:12:08;2.40;;;2.20;;
5900;SDS011;2976;49.764;9.796;2023-04-24T14:14:34;2.07;;;1.97;;
5900;SDS011;2976;49.764;9.796;2023-04-24T14:17:00;2.37;;;2.20;;
5900;SDS011;2976;49.764;9.796;2023-04-24T14:19:25;2.63;;;2.43;;
5900;SDS011;2976;49.764;9.796;2023-04-24T14:21:51;2.90;;;2.70;;
5900;SDS011;2976;49.764;9.796;2023-04-24T14:24:17;3.40;;;2.70;;
5900;SDS011;2976;49.764;9.796;2023-04-24T14:26:42;2.97;;;2.77;;
5900;SDS011;2976;49.764;9.796;2023-04-24T14:29:08;5.53;;;2.90;;
5900;SDS011;2976;49.764;9.796;2023-04-24T14:31:33;2.80;;;2.60;;
5900;SDS011;2976;49.764;9.796;2023-04-24T14:33:59;3.17;;;2.90;;
5900;SDS011;2976;49.764;9.796;2023-04-24T14:36:25;3.60;;;2.83;;
5900;SDS011;2976;49.764;9.796;2023-04-24T14:38:50;2.57;;;2.40;;
5900;SDS011;2976;49.764;9.796;2023-04-24T14:41:16;3.13;;;2.50;;
5900;SDS011;2976;49.764;9.796;2023-04-24T14:43:41;5.00;;;3.00;;
5900;SDS011;2976;49.764;9.796;2023-04-24T14:46:07;4.00;;;2.83;;
5900;SDS011;2976;49.764;9.796;2023-04-24T14:48:33;2.87;;;2.70;;
5900;SDS011;2976;49.764;9.796;2023-04-24T14:50:58;2.53;;;2.33;;
5900;SDS011;2976;49.764;9.796;2023-04-24T14:53:24;2.40;;;2.30;;
5900;SDS011;2976;49.764;9.796;2023-04-24T14:55:49;4.93;;;3.00;;
5900;SDS011;2976;49.764;9.796;2023-04-24T14:58:15;2.93;;;1.80;;
5900;SDS011;2976;49.764;9.796;2023-04-24T15:00:40;2.40;;;2.30;;
5900;SDS011;2976;49.764;9.796;2023-04-24T15:03:06;2.40;;;2.30;;
5900;SDS011;2976;49.764;9.796;2023-04-24T15:05:32;2.60;;;2.40;;
5900;SDS011;2976;49.764;9.796;2023-04-24T15:07:57;2.23;;;2.00;;
5900;SDS011;2976;49.764;9.796;2023-04-24T15:10:23;2.87;;;2.27;;
5900;SDS011;2976;49.764;9.796;2023-04-24T15:12:50;2.87;;;2.17;;
5900;SDS011;2976;49.764;9.796;2023-04-24T15:15:16;2.33;;;2.13;;
5900;SDS011;2976;49.764;9.796;2023-04-24T15:17:41;2.17;;;2.07;;
5900;SDS011;2976;49.764;9.796;2023-04-24T15:20:07;3.67;;;2.20;;
5900;SDS011;2976;49.764;9.796;2023-04-24T15:22:33;3.47;;;2.50;;
5900;SDS011;2976;49.764;9.796;2023-04-24T15:24:59;2.80;;;2.00;;